sensor_id;sensor_type;location;lat;lon;timestamp;P1;durP1;ratioP1;P2;durP2;ratioP2
71125;SDS011;58785;55.566;38.058;2023-06-26T00:01:42;28.77;;;11.77;;
71125;SDS011;58785;55.566;38.058;2023-06-26T00:04:08;31.83;;;12.88;;
71125;SDS011;58785;55.566;38.058;2023-06-26T00:06:39;25.87;;;11.53;;
71125;SDS011;58785;55.566;38.058;2023-06-26T00:09:06;27.15;;;12.07;;
71125;SDS011;58785;55.566;38.058;2023-06-26T00:11:31;28.85;;;11.85;;
71125;SDS011;58785;55.566;38.058;2023-06-26T00:13:59;26.85;;;12.23;;
71125;SDS011;58785;55.566;38.058;2023-06-26T00:16:26;26.77;;;12.17;;
71125;SDS011;58785;55.566;38.058;2023-06-26T00:18:52;25.65;;;11.38;;
71125;SDS011;58785;55.566;38.058;2023-06-26T00:21:18;29.40;;;14.25;;
71125;SDS011;58785;55.566;38.058;2023-06-26T00:23:44;30.63;;;12.43;;
71125;SDS011;58785;55.566;38.058;2023-06-26T00:26:11;30.60;;;12.25;;
71125;SDS011;58785;55.566;38.058;2023-06-26T00:28:37;26.77;;;12.03;;
71125;SDS011;58785;55.566;38.058;2023-06-26T00:31:03;22.67;;;11.30;;
71125;SDS011;58785;55.566;38.058;2023-06-26T00:33:28;25.05;;;12.00;;
71125;SDS011;58785;55.566;38.058;2023-06-26T00:35:54;34.63;;;11.87;;
71125;SDS011;58785;55.566;38.058;2023-06-26T00:38:20;27.88;;;11.60;;
71125;SDS011;58785;55.566;38.058;2023-06-26T00:40:46;27.10;;;11.18;;
71125;SDS011;58785;55.566;38.058;2023-06-26T00:43:12;26.67;;;11.97;;
71125;SDS011;58785;55.566;38.058;2023-06-26T00:45:38;26.30;;;11.73;;
71125;SDS011;58785;55.566;38.058;2023-06-26T00:48:03;24.30;;;11.33;;
71125;SDS011;58785;55.566;38.058;2023-06-26T00:50:30;26.98;;;11.90;;
71125;SDS011;58785;55.566;38.058;2023-06-26T00:52:57;26.80;;;12.35;;
71125;SDS011;58785;55.566;38.058;2023-06-26T00:55:26;25.75;;;12.20;;
71125;SDS011;58785;55.566;38.058;2023-06-26T00:57:53;26.52;;;11.48;;
71125;SDS011;58785;55.566;38.058;2023-06-26T01:00:20;24.53;;;11.67;;
71125;SDS011;58785;55.566;38.058;2023-06-26T01:02:45;30.23;;;12.00;;
71125;SDS011;58785;55.566;38.058;2023-06-26T01:05:12;23.48;;;12.05;;
71125;SDS011;58785;55.566;38.058;2023-06-26T01:07:47;28.40;;;12.15;;
71125;SDS011;58785;55.566;38.058;2023-06-26T01:10:14;26.80;;;12.23;;
71125;SDS011;58785;55.566;38.058;2023-06-26T01:12:40;30.23;;;12.43;;
71125;SDS011;58785;55.566;38.058;2023-06-26T01:15:06;25.15;;;12.25;;
71125;SDS011;58785;55.566;38.058;2023-06-26T01:17:32;26.58;;;11.65;;
71125;SDS011;58785;55.566;38.058;2023-06-26T01:19:59;26.60;;;12.43;;
71125;SDS011;58785;55.566;38.058;2023-06-26T01:25:43;25.70;;;11.82;;
71125;SDS011;58785;55.566;38.058;2023-06-26T01:28:35;25.73;;;11.35;;
71125;SDS011;58785;55.566;38.058;2023-06-26T01:31:04;24.60;;;12.00;;
71125;SDS011;58785;55.566;38.058;2023-06-26T01:33:31;23.98;;;11.50;;
71125;SDS011;58785;55.566;38.058;2023-06-26T01:35:57;26.37;;;11.70;;
71125;SDS011;58785;55.566;38.058;2023-06-26T01:38:23;29.45;;;12.57;;
71125;SDS011;58785;55.566;38.058;2023-06-26T01:40:51;28.30;;;12.05;;
71125;SDS011;58785;55.566;38.058;2023-06-26T01:45:52;25.30;;;12.35;;
71125;SDS011;58785;55.566;38.058;2023-06-26T01:48:23;28.77;;;12.57;;
71125;SDS011;58785;55.566;38.058;2023-06-26T01:50:53;23.50;;;11.88;;
71125;SDS011;58785;55.566;38.058;2023-06-26T01:53:24;28.83;;;13.63;;
71125;SDS011;58785;55.566;38.058;2023-06-26T01:56:04;25.52;;;12.75;;
71125;SDS011;58785;55.566;38.058;2023-06-26T01:58:33;24.60;;;12.70;;
71125;SDS011;58785;55.566;38.058;2023-06-26T02:01:00;29.93;;;12.73;;
71125;SDS011;58785;55.566;38.058;2023-06-26T02:03:27;29.48;;;13.13;;
71125;SDS011;58785;55.566;38.058;2023-06-26T02:05:53;31.17;;;14.07;;
71125;SDS011;58785;55.566;38.058;2023-06-26T02:08:18;30.00;;;14.33;;
71125;SDS011;58785;55.566;38.058;2023-06-26T02:10:44;27.25;;;14.27;;
71125;SDS011;58785;55.566;38.058;2023-06-26T02:13:10;34.40;;;14.63;;
71125;SDS011;58785;55.566;38.058;2023-06-26T02:15:36;31.90;;;13.48;;
71125;SDS011;58785;55.566;38.058;2023-06-26T02:18:02;34.65;;;13.85;;
71125;SDS011;58785;55.566;38.058;2023-06-26T02:20:28;31.60;;;13.27;;
71125;SDS011;58785;55.566;38.058;2023-06-26T02:22:54;30.40;;;13.67;;
71125;SDS011;58785;55.566;38.058;2023-06-26T02:25:20;30.98;;;13.98;;
71125;SDS011;58785;55.566;38.058;2023-06-26T02:27:45;25.63;;;13.00;;
71125;SDS011;58785;55.566;38.058;2023-06-26T02:30:11;32.37;;;14.20;;
71125;SDS011;58785;55.566;38.058;2023-06-26T02:32:37;32.90;;;15.02;;
71125;SDS011;58785;55.566;38.058;2023-06-26T02:35:02;26.47;;;13.80;;
71125;SDS011;58785;55.566;38.058;2023-06-26T02:37:29;27.48;;;13.82;;
71125;SDS011;58785;55.566;38.058;2023-06-26T02:39:55;29.57;;;13.27;;
71125;SDS011;58785;55.566;38.058;2023-06-26T02:42:20;34.47;;;13.80;;
71125;SDS011;58785;55.566;38.058;2023-06-26T02:44:46;26.97;;;13.17;;
71125;SDS011;58785;55.566;38.058;2023-06-26T02:47:11;28.63;;;12.90;;
71125;SDS011;58785;55.566;38.058;2023-06-26T02:49:37;25.97;;;12.87;;
71125;SDS011;58785;55.566;38.058;2023-06-26T02:52:03;28.63;;;12.85;;
71125;SDS011;58785;55.566;38.058;2023-06-26T02:54:29;23.27;;;11.80;;
71125;SDS011;58785;55.566;38.058;2023-06-26T02:56:55;26.67;;;12.10;;
71125;SDS011;58785;55.566;38.058;2023-06-26T02:59:20;26.65;;;12.13;;
71125;SDS011;58785;55.566;38.058;2023-06-26T03:01:46;26.27;;;12.17;;
71125;SDS011;58785;55.566;38.058;2023-06-26T03:04:12;27.08;;;12.02;;
71125;SDS011;58785;55.566;38.058;2023-06-26T03:06:37;26.58;;;12.30;;
71125;SDS011;58785;55.566;38.058;2023-06-26T03:09:03;28.50;;;12.47;;
71125;SDS011;58785;55.566;38.058;2023-06-26T03:11:29;28.53;;;13.40;;
71125;SDS011;58785;55.566;38.058;2023-06-26T03:13:54;26.15;;;13.23;;
71125;SDS011;58785;55.566;38.058;2023-06-26T03:16:20;26.37;;;13.80;;
71125;SDS011;58785;55.566;38.058;2023-06-26T03:18:46;29.65;;;14.52;;
71125;SDS011;58785;55.566;38.058;2023-06-26T03:21:12;31.23;;;15.77;;
71125;SDS011;58785;55.566;38.058;2023-06-26T03:23:37;36.87;;;15.83;;
71125;SDS011;58785;55.566;38.058;2023-06-26T03:26:03;32.27;;;15.97;;
71125;SDS011;58785;55.566;38.058;2023-06-26T03:28:29;36.33;;;16.97;;
71125;SDS011;58785;55.566;38.058;2023-06-26T03:30:56;35.65;;;17.98;;
71125;SDS011;58785;55.566;38.058;2023-06-26T03:33:22;35.93;;;17.60;;
71125;SDS011;58785;55.566;38.058;2023-06-26T03:35:47;33.15;;;17.65;;
71125;SDS011;58785;55.566;38.058;2023-06-26T03:38:13;31.73;;;17.17;;
71125;SDS011;58785;55.566;38.058;2023-06-26T03:40:39;31.77;;;17.10;;
71125;SDS011;58785;55.566;38.058;2023-06-26T03:43:04;32.20;;;17.97;;
71125;SDS011;58785;55.566;38.058;2023-06-26T03:45:30;34.30;;;17.52;;
71125;SDS011;58785;55.566;38.058;2023-06-26T03:47:55;37.93;;;19.53;;
71125;SDS011;58785;55.566;38.058;2023-06-26T03:50:21;34.35;;;18.08;;
71125;SDS011;58785;55.566;38.058;2023-06-26T03:52:47;32.93;;;17.87;;
71125;SDS011;58785;55.566;38.058;2023-06-26T03:55:12;31.55;;;17.10;;
71125;SDS011;58785;55.566;38.058;2023-06-26T03:57:38;24.97;;;15.37;;
71125;SDS011;58785;55.566;38.058;2023-06-26T04:00:04;30.92;;;17.33;;
71125;SDS011;58785;55.566;38.058;2023-06-26T04:02:33;28.30;;;17.00;;
71125;SDS011;58785;55.566;38.058;2023-06-26T04:05:03;26.60;;;14.93;;
71125;SDS011;58785;55.566;38.058;2023-06-26T04:07:30;24.70;;;14.53;;
71125;SDS011;58785;55.566;38.058;2023-06-26T04:09:59;28.85;;;14.75;;
71125;SDS011;58785;55.566;38.058;2023-06-26T04:12:25;23.23;;;13.00;;
71125;SDS011;58785;55.566;38.058;2023-06-26T04:14:51;21.40;;;13.50;;
71125;SDS011;58785;55.566;38.058;2023-06-26T04:17:16;20.80;;;11.40;;
71125;SDS011;58785;55.566;38.058;2023-06-26T04:19:42;20.57;;;12.27;;
71125;SDS011;58785;55.566;38.058;2023-06-26T04:22:08;21.27;;;12.07;;
71125;SDS011;58785;55.566;38.058;2023-06-26T04:24:33;21.80;;;12.70;;
71125;SDS011;58785;55.566;38.058;2023-06-26T04:26:59;21.27;;;12.82;;
71125;SDS011;58785;55.566;38.058;2023-06-26T04:29:28;22.73;;;13.30;;
71125;SDS011;58785;55.566;38.058;2023-06-26T04:31:53;22.83;;;13.07;;
71125;SDS011;58785;55.566;38.058;2023-06-26T04:34:26;22.95;;;12.82;;
71125;SDS011;58785;55.566;38.058;2023-06-26T04:36:56;21.05;;;12.35;;
71125;SDS011;58785;55.566;38.058;2023-06-26T04:39:21;18.80;;;12.05;;
71125;SDS011;58785;55.566;38.058;2023-06-26T04:41:47;21.70;;;11.83;;
71125;SDS011;58785;55.566;38.058;2023-06-26T04:44:13;18.33;;;9.95;;
71125;SDS011;58785;55.566;38.058;2023-06-26T04:46:39;17.70;;;9.23;;
71125;SDS011;58785;55.566;38.058;2023-06-26T04:49:10;15.35;;;9.07;;
71125;SDS011;58785;55.566;38.058;2023-06-26T04:51:36;14.82;;;8.20;;
71125;SDS011;58785;55.566;38.058;2023-06-26T04:54:08;16.40;;;8.60;;
71125;SDS011;58785;55.566;38.058;2023-06-26T04:56:35;14.63;;;8.33;;
71125;SDS011;58785;55.566;38.058;2023-06-26T04:59:01;18.17;;;8.73;;
71125;SDS011;58785;55.566;38.058;2023-06-26T05:01:29;14.52;;;8.32;;
71125;SDS011;58785;55.566;38.058;2023-06-26T05:03:55;13.65;;;8.15;;
71125;SDS011;58785;55.566;38.058;2023-06-26T05:06:22;14.00;;;7.82;;
71125;SDS011;58785;55.566;38.058;2023-06-26T05:08:47;15.43;;;8.63;;
71125;SDS011;58785;55.566;38.058;2023-06-26T05:11:13;13.55;;;8.52;;
71125;SDS011;58785;55.566;38.058;2023-06-26T05:13:39;19.30;;;9.67;;
71125;SDS011;58785;55.566;38.058;2023-06-26T05:16:05;23.00;;;9.40;;
71125;SDS011;58785;55.566;38.058;2023-06-26T05:18:33;15.57;;;9.50;;
71125;SDS011;58785;55.566;38.058;2023-06-26T05:20:59;16.83;;;9.50;;
71125;SDS011;58785;55.566;38.058;2023-06-26T05:23:25;17.10;;;9.50;;
71125;SDS011;58785;55.566;38.058;2023-06-26T05:25:51;13.60;;;8.00;;
71125;SDS011;58785;55.566;38.058;2023-06-26T05:28:18;13.45;;;8.52;;
71125;SDS011;58785;55.566;38.058;2023-06-26T05:30:43;15.65;;;9.48;;
71125;SDS011;58785;55.566;38.058;2023-06-26T05:33:10;17.60;;;8.97;;
71125;SDS011;58785;55.566;38.058;2023-06-26T05:35:37;17.87;;;9.43;;
71125;SDS011;58785;55.566;38.058;2023-06-26T05:38:04;16.17;;;8.65;;
71125;SDS011;58785;55.566;38.058;2023-06-26T05:40:30;17.33;;;9.18;;
71125;SDS011;58785;55.566;38.058;2023-06-26T05:42:56;15.02;;;8.75;;
71125;SDS011;58785;55.566;38.058;2023-06-26T05:45:22;14.20;;;8.18;;
71125;SDS011;58785;55.566;38.058;2023-06-26T05:47:47;15.03;;;7.53;;
71125;SDS011;58785;55.566;38.058;2023-06-26T05:50:15;19.48;;;7.63;;
71125;SDS011;58785;55.566;38.058;2023-06-26T05:52:42;16.30;;;8.13;;
71125;SDS011;58785;55.566;38.058;2023-06-26T05:55:09;16.13;;;7.55;;
71125;SDS011;58785;55.566;38.058;2023-06-26T05:57:35;13.35;;;7.15;;
71125;SDS011;58785;55.566;38.058;2023-06-26T06:00:03;13.10;;;7.32;;
71125;SDS011;58785;55.566;38.058;2023-06-26T06:02:32;12.03;;;7.40;;
71125;SDS011;58785;55.566;38.058;2023-06-26T06:04:57;10.63;;;6.30;;
71125;SDS011;58785;55.566;38.058;2023-06-26T06:07:23;10.98;;;6.43;;
71125;SDS011;58785;55.566;38.058;2023-06-26T06:09:48;11.57;;;7.13;;
71125;SDS011;58785;55.566;38.058;2023-06-26T06:12:14;11.77;;;7.57;;
71125;SDS011;58785;55.566;38.058;2023-06-26T06:14:40;11.03;;;6.80;;
71125;SDS011;58785;55.566;38.058;2023-06-26T06:17:05;10.03;;;6.50;;
71125;SDS011;58785;55.566;38.058;2023-06-26T06:19:31;11.20;;;6.45;;
71125;SDS011;58785;55.566;38.058;2023-06-26T06:21:59;11.02;;;7.53;;
71125;SDS011;58785;55.566;38.058;2023-06-26T06:24:25;10.80;;;7.20;;
71125;SDS011;58785;55.566;38.058;2023-06-26T06:26:50;10.43;;;6.55;;
71125;SDS011;58785;55.566;38.058;2023-06-26T06:29:16;9.30;;;5.77;;
71125;SDS011;58785;55.566;38.058;2023-06-26T06:31:43;11.23;;;6.63;;
71125;SDS011;58785;55.566;38.058;2023-06-26T06:34:09;15.37;;;8.67;;
71125;SDS011;58785;55.566;38.058;2023-06-26T06:36:35;13.10;;;8.40;;
71125;SDS011;58785;55.566;38.058;2023-06-26T06:39:00;13.40;;;7.43;;
71125;SDS011;58785;55.566;38.058;2023-06-26T06:41:26;13.75;;;7.40;;
71125;SDS011;58785;55.566;38.058;2023-06-26T06:43:52;13.73;;;7.80;;
71125;SDS011;58785;55.566;38.058;2023-06-26T06:46:17;13.07;;;8.27;;
71125;SDS011;58785;55.566;38.058;2023-06-26T06:48:43;12.13;;;7.50;;
71125;SDS011;58785;55.566;38.058;2023-06-26T06:51:09;14.43;;;7.23;;
71125;SDS011;58785;55.566;38.058;2023-06-26T06:53:34;11.90;;;6.88;;
71125;SDS011;58785;55.566;38.058;2023-06-26T06:56:00;12.73;;;7.40;;
71125;SDS011;58785;55.566;38.058;2023-06-26T06:58:26;11.50;;;6.35;;
71125;SDS011;58785;55.566;38.058;2023-06-26T07:00:51;10.40;;;6.83;;
71125;SDS011;58785;55.566;38.058;2023-06-26T07:03:17;9.98;;;6.57;;
71125;SDS011;58785;55.566;38.058;2023-06-26T07:05:44;10.65;;;6.55;;
71125;SDS011;58785;55.566;38.058;2023-06-26T07:08:10;12.10;;;6.63;;
71125;SDS011;58785;55.566;38.058;2023-06-26T07:10:35;12.63;;;6.40;;
71125;SDS011;58785;55.566;38.058;2023-06-26T07:13:01;10.80;;;6.35;;
71125;SDS011;58785;55.566;38.058;2023-06-26T07:15:27;12.53;;;6.00;;
71125;SDS011;58785;55.566;38.058;2023-06-26T07:17:52;10.85;;;6.15;;
71125;SDS011;58785;55.566;38.058;2023-06-26T07:20:18;11.53;;;5.83;;
71125;SDS011;58785;55.566;38.058;2023-06-26T07:22:44;12.23;;;5.57;;
71125;SDS011;58785;55.566;38.058;2023-06-26T07:25:10;10.47;;;6.10;;
71125;SDS011;58785;55.566;38.058;2023-06-26T07:27:37;10.40;;;6.20;;
71125;SDS011;58785;55.566;38.058;2023-06-26T07:30:03;9.68;;;6.32;;
71125;SDS011;58785;55.566;38.058;2023-06-26T07:32:31;10.90;;;6.38;;
71125;SDS011;58785;55.566;38.058;2023-06-26T07:34:57;9.98;;;6.13;;
71125;SDS011;58785;55.566;38.058;2023-06-26T07:37:23;9.20;;;5.30;;
71125;SDS011;58785;55.566;38.058;2023-06-26T07:39:49;9.50;;;6.03;;
71125;SDS011;58785;55.566;38.058;2023-06-26T07:42:14;9.48;;;5.90;;
71125;SDS011;58785;55.566;38.058;2023-06-26T07:44:43;9.50;;;5.43;;
71125;SDS011;58785;55.566;38.058;2023-06-26T07:47:09;10.27;;;5.57;;
71125;SDS011;58785;55.566;38.058;2023-06-26T07:49:35;8.77;;;5.65;;
71125;SDS011;58785;55.566;38.058;2023-06-26T07:52:01;13.52;;;6.13;;
71125;SDS011;58785;55.566;38.058;2023-06-26T07:54:27;9.50;;;5.13;;
71125;SDS011;58785;55.566;38.058;2023-06-26T07:59:21;10.90;;;5.68;;
71125;SDS011;58785;55.566;38.058;2023-06-26T08:01:50;8.73;;;5.30;;
71125;SDS011;58785;55.566;38.058;2023-06-26T08:04:21;9.13;;;5.97;;
71125;SDS011;58785;55.566;38.058;2023-06-26T08:06:48;10.23;;;5.07;;
71125;SDS011;58785;55.566;38.058;2023-06-26T08:09:15;9.87;;;4.60;;
71125;SDS011;58785;55.566;38.058;2023-06-26T08:11:42;9.03;;;5.27;;
71125;SDS011;58785;55.566;38.058;2023-06-26T08:14:07;10.00;;;5.80;;
71125;SDS011;58785;55.566;38.058;2023-06-26T08:16:33;8.40;;;5.00;;
71125;SDS011;58785;55.566;38.058;2023-06-26T08:18:59;10.65;;;5.60;;
71125;SDS011;58785;55.566;38.058;2023-06-26T08:21:25;10.52;;;6.20;;
71125;SDS011;58785;55.566;38.058;2023-06-26T08:23:50;8.77;;;5.27;;
71125;SDS011;58785;55.566;38.058;2023-06-26T08:26:16;9.70;;;5.93;;
71125;SDS011;58785;55.566;38.058;2023-06-26T08:28:42;10.33;;;5.50;;
71125;SDS011;58785;55.566;38.058;2023-06-26T08:31:07;10.35;;;5.35;;
71125;SDS011;58785;55.566;38.058;2023-06-26T08:33:33;9.53;;;4.70;;
71125;SDS011;58785;55.566;38.058;2023-06-26T08:35:59;10.00;;;5.20;;
71125;SDS011;58785;55.566;38.058;2023-06-26T08:38:24;9.35;;;5.68;;
71125;SDS011;58785;55.566;38.058;2023-06-26T08:40:50;8.67;;;5.10;;
71125;SDS011;58785;55.566;38.058;2023-06-26T08:43:16;9.68;;;4.90;;
71125;SDS011;58785;55.566;38.058;2023-06-26T08:45:41;9.27;;;4.73;;
71125;SDS011;58785;55.566;38.058;2023-06-26T08:48:08;9.83;;;5.40;;
71125;SDS011;58785;55.566;38.058;2023-06-26T08:50:35;9.70;;;5.38;;
71125;SDS011;58785;55.566;38.058;2023-06-26T08:53:11;9.77;;;4.60;;
71125;SDS011;58785;55.566;38.058;2023-06-26T08:56:01;9.23;;;5.05;;
71125;SDS011;58785;55.566;38.058;2023-06-26T08:58:27;11.80;;;5.47;;
71125;SDS011;58785;55.566;38.058;2023-06-26T09:00:53;9.00;;;4.90;;
71125;SDS011;58785;55.566;38.058;2023-06-26T09:03:21;10.38;;;5.60;;
71125;SDS011;58785;55.566;38.058;2023-06-26T09:05:47;8.82;;;5.03;;
71125;SDS011;58785;55.566;38.058;2023-06-26T09:08:12;9.03;;;5.23;;
71125;SDS011;58785;55.566;38.058;2023-06-26T09:10:38;11.10;;;6.13;;
71125;SDS011;58785;55.566;38.058;2023-06-26T09:13:04;11.02;;;6.28;;
71125;SDS011;58785;55.566;38.058;2023-06-26T09:16:04;8.88;;;4.70;;
71125;SDS011;58785;55.566;38.058;2023-06-26T09:18:23;9.27;;;5.30;;
71125;SDS011;58785;55.566;38.058;2023-06-26T09:20:49;11.63;;;5.10;;
71125;SDS011;58785;55.566;38.058;2023-06-26T09:23:16;9.43;;;5.03;;
71125;SDS011;58785;55.566;38.058;2023-06-26T09:25:42;10.13;;;4.65;;
71125;SDS011;58785;55.566;38.058;2023-06-26T09:28:09;9.18;;;5.15;;
71125;SDS011;58785;55.566;38.058;2023-06-26T09:30:35;9.23;;;5.27;;
71125;SDS011;58785;55.566;38.058;2023-06-26T09:33:17;9.30;;;4.72;;
71125;SDS011;58785;55.566;38.058;2023-06-26T09:35:45;10.52;;;4.93;;
71125;SDS011;58785;55.566;38.058;2023-06-26T09:38:12;8.82;;;4.78;;
71125;SDS011;58785;55.566;38.058;2023-06-26T09:40:39;9.10;;;4.63;;
71125;SDS011;58785;55.566;38.058;2023-06-26T09:43:05;10.77;;;4.88;;
71125;SDS011;58785;55.566;38.058;2023-06-26T09:45:34;8.40;;;5.00;;
71125;SDS011;58785;55.566;38.058;2023-06-26T09:48:04;8.65;;;4.57;;
71125;SDS011;58785;55.566;38.058;2023-06-26T09:50:32;8.38;;;4.32;;
71125;SDS011;58785;55.566;38.058;2023-06-26T09:53:06;9.35;;;4.68;;
71125;SDS011;58785;55.566;38.058;2023-06-26T09:55:34;8.43;;;4.40;;
71125;SDS011;58785;55.566;38.058;2023-06-26T09:58:02;9.07;;;5.03;;
71125;SDS011;58785;55.566;38.058;2023-06-26T10:00:29;8.85;;;4.63;;
71125;SDS011;58785;55.566;38.058;2023-06-26T10:02:56;11.37;;;4.93;;
71125;SDS011;58785;55.566;38.058;2023-06-26T10:05:21;12.52;;;5.05;;
71125;SDS011;58785;55.566;38.058;2023-06-26T10:07:47;8.97;;;4.63;;
71125;SDS011;58785;55.566;38.058;2023-06-26T10:10:13;10.27;;;5.05;;
71125;SDS011;58785;55.566;38.058;2023-06-26T10:12:40;9.68;;;4.35;;
71125;SDS011;58785;55.566;38.058;2023-06-26T10:15:11;12.13;;;5.03;;
71125;SDS011;58785;55.566;38.058;2023-06-26T10:17:41;8.63;;;4.57;;
71125;SDS011;58785;55.566;38.058;2023-06-26T10:20:08;9.53;;;5.00;;
71125;SDS011;58785;55.566;38.058;2023-06-26T10:22:36;10.35;;;5.47;;
71125;SDS011;58785;55.566;38.058;2023-06-26T10:25:06;8.10;;;4.30;;
71125;SDS011;58785;55.566;38.058;2023-06-26T10:27:34;8.32;;;4.80;;
71125;SDS011;58785;55.566;38.058;2023-06-26T10:30:04;9.30;;;4.38;;
71125;SDS011;58785;55.566;38.058;2023-06-26T10:32:34;10.18;;;4.47;;
71125;SDS011;58785;55.566;38.058;2023-06-26T10:35:01;9.30;;;4.40;;
71125;SDS011;58785;55.566;38.058;2023-06-26T10:37:42;8.37;;;4.73;;
71125;SDS011;58785;55.566;38.058;2023-06-26T10:40:20;8.95;;;4.45;;
71125;SDS011;58785;55.566;38.058;2023-06-26T10:42:50;8.80;;;4.90;;
71125;SDS011;58785;55.566;38.058;2023-06-26T10:45:16;8.63;;;4.93;;
71125;SDS011;58785;55.566;38.058;2023-06-26T10:47:47;7.93;;;4.27;;
71125;SDS011;58785;55.566;38.058;2023-06-26T10:50:20;10.77;;;4.80;;
71125;SDS011;58785;55.566;38.058;2023-06-26T10:53:14;9.40;;;5.00;;
71125;SDS011;58785;55.566;38.058;2023-06-26T10:55:49;9.30;;;4.28;;
71125;SDS011;58785;55.566;38.058;2023-06-26T10:58:32;9.30;;;4.90;;
71125;SDS011;58785;55.566;38.058;2023-06-26T11:03:41;8.05;;;3.92;;
71125;SDS011;58785;55.566;38.058;2023-06-26T11:06:14;8.85;;;4.38;;
71125;SDS011;58785;55.566;38.058;2023-06-26T11:08:47;7.60;;;4.13;;
71125;SDS011;58785;55.566;38.058;2023-06-26T11:11:54;7.78;;;3.67;;
71125;SDS011;58785;55.566;38.058;2023-06-26T11:14:30;8.38;;;3.78;;
71125;SDS011;58785;55.566;38.058;2023-06-26T11:16:57;7.53;;;3.92;;
71125;SDS011;58785;55.566;38.058;2023-06-26T11:19:25;6.85;;;3.63;;
71125;SDS011;58785;55.566;38.058;2023-06-26T11:21:52;7.78;;;4.30;;
71125;SDS011;58785;55.566;38.058;2023-06-26T11:24:23;7.70;;;3.70;;
71125;SDS011;58785;55.566;38.058;2023-06-26T11:26:49;7.77;;;3.90;;
71125;SDS011;58785;55.566;38.058;2023-06-26T11:29:15;7.72;;;4.28;;
71125;SDS011;58785;55.566;38.058;2023-06-26T11:31:41;7.27;;;3.93;;
71125;SDS011;58785;55.566;38.058;2023-06-26T11:34:08;7.82;;;4.18;;
71125;SDS011;58785;55.566;38.058;2023-06-26T11:36:40;8.13;;;4.13;;
71125;SDS011;58785;55.566;38.058;2023-06-26T11:39:08;7.53;;;4.13;;
71125;SDS011;58785;55.566;38.058;2023-06-26T11:41:35;11.20;;;4.40;;
71125;SDS011;58785;55.566;38.058;2023-06-26T11:44:05;9.05;;;4.45;;
71125;SDS011;58785;55.566;38.058;2023-06-26T11:46:33;8.98;;;4.57;;
71125;SDS011;58785;55.566;38.058;2023-06-26T11:49:02;9.17;;;4.57;;
71125;SDS011;58785;55.566;38.058;2023-06-26T11:51:32;9.10;;;4.63;;
71125;SDS011;58785;55.566;38.058;2023-06-26T11:54:01;8.95;;;4.30;;
71125;SDS011;58785;55.566;38.058;2023-06-26T11:56:30;8.13;;;4.38;;
71125;SDS011;58785;55.566;38.058;2023-06-26T12:01:33;8.43;;;4.90;;
71125;SDS011;58785;55.566;38.058;2023-06-26T12:03:59;7.57;;;4.40;;
71125;SDS011;58785;55.566;38.058;2023-06-26T12:06:27;7.57;;;3.92;;
71125;SDS011;58785;55.566;38.058;2023-06-26T12:08:54;7.57;;;4.40;;
71125;SDS011;58785;55.566;38.058;2023-06-26T12:11:21;8.68;;;4.22;;
71125;SDS011;58785;55.566;38.058;2023-06-26T12:13:49;8.90;;;4.40;;
71125;SDS011;58785;55.566;38.058;2023-06-26T12:16:16;8.40;;;4.60;;
71125;SDS011;58785;55.566;38.058;2023-06-26T12:18:41;8.00;;;4.00;;
71125;SDS011;58785;55.566;38.058;2023-06-26T12:21:07;8.32;;;4.35;;
71125;SDS011;58785;55.566;38.058;2023-06-26T12:23:38;8.20;;;4.07;;
71125;SDS011;58785;55.566;38.058;2023-06-26T12:26:18;9.18;;;4.00;;
71125;SDS011;58785;55.566;38.058;2023-06-26T12:28:47;9.17;;;4.97;;
71125;SDS011;58785;55.566;38.058;2023-06-26T12:31:13;10.33;;;4.63;;
71125;SDS011;58785;55.566;38.058;2023-06-26T12:33:42;12.75;;;5.97;;
71125;SDS011;58785;55.566;38.058;2023-06-26T12:36:12;12.57;;;6.43;;
71125;SDS011;58785;55.566;38.058;2023-06-26T12:38:38;9.57;;;5.10;;
71125;SDS011;58785;55.566;38.058;2023-06-26T12:41:11;14.07;;;6.70;;
71125;SDS011;58785;55.566;38.058;2023-06-26T12:43:41;10.00;;;4.30;;
71125;SDS011;58785;55.566;38.058;2023-06-26T12:46:07;9.05;;;4.25;;
71125;SDS011;58785;55.566;38.058;2023-06-26T12:48:39;8.00;;;4.13;;
71125;SDS011;58785;55.566;38.058;2023-06-26T12:51:09;10.20;;;4.88;;
71125;SDS011;58785;55.566;38.058;2023-06-26T12:53:36;9.45;;;5.13;;
71125;SDS011;58785;55.566;38.058;2023-06-26T12:56:05;9.02;;;4.82;;
71125;SDS011;58785;55.566;38.058;2023-06-26T12:58:32;10.57;;;4.77;;
71125;SDS011;58785;55.566;38.058;2023-06-26T13:00:57;9.67;;;4.93;;
71125;SDS011;58785;55.566;38.058;2023-06-26T13:03:24;11.70;;;4.55;;
71125;SDS011;58785;55.566;38.058;2023-06-26T13:05:50;10.13;;;4.63;;
71125;SDS011;58785;55.566;38.058;2023-06-26T13:08:16;9.10;;;4.53;;
71125;SDS011;58785;55.566;38.058;2023-06-26T13:10:45;8.73;;;4.50;;
71125;SDS011;58785;55.566;38.058;2023-06-26T13:13:11;8.30;;;3.97;;
71125;SDS011;58785;55.566;38.058;2023-06-26T13:15:37;8.03;;;4.40;;
71125;SDS011;58785;55.566;38.058;2023-06-26T13:18:03;9.00;;;3.80;;
71125;SDS011;58785;55.566;38.058;2023-06-26T13:20:29;9.68;;;4.53;;
71125;SDS011;58785;55.566;38.058;2023-06-26T13:22:55;8.13;;;4.68;;
71125;SDS011;58785;55.566;38.058;2023-06-26T13:25:21;7.70;;;4.37;;
71125;SDS011;58785;55.566;38.058;2023-06-26T13:27:47;9.10;;;4.30;;
71125;SDS011;58785;55.566;38.058;2023-06-26T13:30:14;9.57;;;4.35;;
71125;SDS011;58785;55.566;38.058;2023-06-26T13:32:41;9.27;;;4.85;;
71125;SDS011;58785;55.566;38.058;2023-06-26T13:35:07;9.00;;;4.03;;
71125;SDS011;58785;55.566;38.058;2023-06-26T13:37:34;9.32;;;4.53;;
71125;SDS011;58785;55.566;38.058;2023-06-26T13:40:02;11.23;;;4.73;;
71125;SDS011;58785;55.566;38.058;2023-06-26T13:42:30;7.93;;;4.20;;
71125;SDS011;58785;55.566;38.058;2023-06-26T13:44:56;9.52;;;4.00;;
71125;SDS011;58785;55.566;38.058;2023-06-26T13:47:22;8.27;;;4.32;;
71125;SDS011;58785;55.566;38.058;2023-06-26T13:49:48;7.53;;;4.05;;
71125;SDS011;58785;55.566;38.058;2023-06-26T13:52:14;7.83;;;3.83;;
71125;SDS011;58785;55.566;38.058;2023-06-26T13:54:40;8.13;;;4.03;;
71125;SDS011;58785;55.566;38.058;2023-06-26T13:57:06;8.05;;;4.07;;
71125;SDS011;58785;55.566;38.058;2023-06-26T13:59:33;8.73;;;4.40;;
71125;SDS011;58785;55.566;38.058;2023-06-26T14:02:03;8.70;;;4.47;;
71125;SDS011;58785;55.566;38.058;2023-06-26T14:04:30;7.72;;;3.72;;
71125;SDS011;58785;55.566;38.058;2023-06-26T14:06:56;8.13;;;4.45;;
71125;SDS011;58785;55.566;38.058;2023-06-26T14:09:21;7.87;;;4.20;;
71125;SDS011;58785;55.566;38.058;2023-06-26T14:11:47;8.88;;;4.82;;
71125;SDS011;58785;55.566;38.058;2023-06-26T14:14:13;9.07;;;4.83;;
71125;SDS011;58785;55.566;38.058;2023-06-26T14:16:39;10.07;;;5.00;;
71125;SDS011;58785;55.566;38.058;2023-06-26T14:19:07;11.75;;;4.60;;
71125;SDS011;58785;55.566;38.058;2023-06-26T14:21:38;8.55;;;4.07;;
71125;SDS011;58785;55.566;38.058;2023-06-26T14:24:03;9.17;;;4.07;;
71125;SDS011;58785;55.566;38.058;2023-06-26T14:26:29;8.75;;;4.35;;
71125;SDS011;58785;55.566;38.058;2023-06-26T14:28:55;7.73;;;4.23;;
71125;SDS011;58785;55.566;38.058;2023-06-26T14:31:20;10.35;;;4.60;;
71125;SDS011;58785;55.566;38.058;2023-06-26T14:33:46;8.50;;;4.00;;
71125;SDS011;58785;55.566;38.058;2023-06-26T14:36:12;8.05;;;4.38;;
71125;SDS011;58785;55.566;38.058;2023-06-26T14:38:37;7.97;;;4.50;;